Time;durP1;ratioP1;P1;durP2;ratioP2;P2;SDS_P1;SDS_P2;PMS_P1;PMS_P2;Temp;Humidity;BMP_temperature;BMP_pressure;BME280_temperature;BME280_humidity;BME280_pressure;Samples;Min_cycle;Max_cycle;Signal;HPM_P1;HPM_P2
2022/10/20 00:00:47;;;;;;;;;13.00;11.00;;;;;20.11;69.55;100628.31;2102022;27;45043;-75
2022/10/20 00:01:47;;;;;;;;;15.67;14.33;;;;;20.10;70.07;100633.81;2115861;27;45972;-72
2022/10/20 00:02:48;;;;;;;;;15.67;14.67;;;;;20.09;70.19;100632.94;2116719;27;45623;-72
2022/10/20 00:03:49;;;;;;;;;11.67;10.67;;;;;20.09;69.76;100641.03;2118982;27;45228;-73
2022/10/20 00:04:49;;;;;;;;;13.00;13.00;;;;;20.09;69.67;100638.31;2115945;27;45817;-73
2022/10/20 00:05:50;;;;;;;;;13.00;13.00;;;;;20.09;70.20;100643.72;2117954;27;45690;-72
2022/10/20 00:06:50;;;;;;;;;17.33;14.00;;;;;20.07;70.01;100626.75;2115361;27;46434;-72
2022/10/20 00:07:50;;;;;;;;;13.00;13.00;;;;;20.07;70.24;100632.13;2116618;27;46265;-73
2022/10/20 00:08:51;;;;;;;;;14.67;14.67;;;;;20.09;69.73;100635.63;2117663;27;46656;-74
2022/10/20 00:09:51;;;;;;;;;13.33;12.00;;;;;20.07;70.05;100629.44;2117550;27;46396;-73
2022/10/20 00:10:55;;;;;;;;;14.00;14.00;;;;;20.07;70.02;100626.75;2117420;27;46608;-72
2022/10/20 00:11:55;;;;;;;;;10.50;10.25;;;;;20.06;69.69;100622.31;2117336;27;46415;-72
2022/10/20 00:12:56;;;;;;;;;15.67;13.67;;;;;20.06;69.69;100629.53;2115795;27;46597;-72
2022/10/20 00:13:57;;;;;;;;;17.00;15.00;;;;;20.05;70.33;100631.38;2119092;27;48544;-72
2022/10/20 00:14:58;;;;;;;;;11.75;11.75;;;;;20.07;69.83;100636.66;2118638;27;46360;-71
2022/10/20 00:15:59;;;;;;;;;13.67;12.33;;;;;20.07;69.95;100636.66;2118219;27;46390;-72
2022/10/20 00:17:00;;;;;;;;;12.50;12.50;;;;;20.06;70.17;100641.19;2116033;27;46157;-72
2022/10/20 00:18:00;;;;;;;;;13.00;12.00;;;;;20.07;70.31;100645.59;2120752;27;46702;-70
2022/10/20 00:19:01;;;;;;;;;13.33;13.00;;;;;20.10;70.09;100649.97;2116721;27;46178;-72
2022/10/20 00:20:01;;;;;;;;;13.67;12.33;;;;;20.10;69.57;100645.44;2116197;27;46637;-71
2022/10/20 00:21:12;;;;;;;;;14.33;13.67;;;;;20.10;70.21;100648.13;2114377;27;45896;-70
2022/10/20 00:22:12;;;;;;;;;5.00;5.00;;;;;20.10;69.97;100648.13;2119883;27;46392;-71
2022/10/20 00:23:13;;;;;;;;;14.33;13.00;;;;;20.11;69.45;100644.47;2116979;27;46405;-72
2022/10/20 00:24:13;;;;;;;;;14.33;13.33;;;;;20.11;69.50;100643.63;2117995;27;45612;-73
2022/10/20 00:25:14;;;;;;;;;16.00;14.67;;;;;20.12;69.83;100648.03;2115893;27;45655;-71
2022/10/20 00:26:14;;;;;;;;;13.67;13.67;;;;;20.12;69.94;100643.50;2119484;27;46203;-71
2022/10/20 00:27:14;;;;;;;;;16.75;15.25;;;;;20.13;70.02;100649.78;2115948;27;46270;-71
2022/10/20 00:28:15;;;;;;;;;14.00;14.00;;;;;20.13;69.96;100644.38;2119242;27;45762;-71
2022/10/20 00:29:16;;;;;;;;;15.25;15.25;;;;;20.12;70.15;100639.97;2119591;27;45362;-73
2022/10/20 00:30:16;;;;;;;;;15.25;15.00;;;;;20.13;69.46;100642.56;2117092;27;46104;-72
2022/10/20 00:31:18;;;;;;;;;10.00;10.00;;;;;20.13;69.99;100639.84;2118470;27;45698;-73
2022/10/20 00:32:18;;;;;;;;;12.00;12.00;;;;;20.13;69.49;100636.28;2119831;27;47338;-72
2022/10/20 00:33:18;;;;;;;;;11.33;11.33;;;;;20.14;69.47;100627.25;2119609;27;45127;-71
2022/10/20 00:34:19;;;;;;;;;19.33;14.00;;;;;20.13;69.90;100628.22;2118401;27;45091;-72
2022/10/20 00:35:19;;;;;;;;;16.00;14.00;;;;;20.14;69.42;100621.84;2116396;27;46910;-72
2022/10/20 00:36:21;;;;;;;;;17.33;17.00;;;;;20.14;69.77;100619.16;2119883;27;45974;-71
2022/10/20 00:37:22;;;;;;;;;14.50;14.50;;;;;20.13;70.01;100621.00;2114487;27;46413;-72
2022/10/20 00:38:22;;;;;;;;;17.00;16.67;;;;;20.14;69.42;100624.56;2116601;27;46785;-72
2022/10/20 00:39:22;;;;;;;;;12.67;12.33;;;;;20.13;69.99;100621.00;2114986;27;44937;-72
2022/10/20 00:40:23;;;;;;;;;12.67;12.67;;;;;20.13;69.77;100622.81;2116734;27;46766;-71
2022/10/20 00:41:23;;;;;;;;;13.00;13.00;;;;;20.11;70.02;100622.94;2115323;27;45928;-72
2022/10/20 00:42:24;;;;;;;;;14.00;14.00;;;;;20.13;70.08;100625.53;2115894;27;45257;-71
2022/10/20 00:44:23;;;;;;;;;14.00;14.00;;;;;20.13;69.47;100625.53;2118360;27;45487;-72
2022/10/20 00:45:23;;;;;;;;;13.50;13.00;;;;;20.13;69.80;100626.38;2074746;28;45408;-71
2022/10/20 00:46:38;;;;;;;;;13.33;13.33;;;;;20.14;69.92;100629.94;2078211;28;45496;-72
2022/10/20 00:47:46;;;;;;;;;12.50;11.50;;;;;20.13;69.81;100631.78;2076927;28;46753;-72
2022/10/20 00:48:56;;;;;;;;;15.60;15.00;;;;;20.13;69.56;100623.69;2076567;28;46817;-72
2022/10/20 00:50:06;;;;;;;;;11.50;11.50;;;;;20.13;70.03;100622.81;2078248;28;45521;-72
2022/10/20 00:51:06;;;;;;;;;15.75;14.25;;;;;20.13;69.60;100614.75;2076735;28;46841;-73
2022/10/20 00:52:08;;;;;;;;;13.33;13.33;;;;;20.12;69.85;100610.31;2077407;28;47208;-71
2022/10/20 00:53:09;;;;;;;;;14.75;14.75;;;;;20.09;69.84;100603.31;2076531;28;45927;-71
2022/10/20 00:54:14;;;;;;;;;15.75;11.25;;;;;20.09;69.41;100611.38;2078555;28;46354;-70
2022/10/20 00:55:20;;;;;;;;;12.50;11.75;;;;;20.09;69.74;100606.00;2075960;28;46804;-71
2022/10/20 00:56:21;;;;;;;;;14.00;14.00;;;;;20.10;69.52;100609.56;2076708;28;45601;-71
2022/10/20 00:57:21;;;;;;;;;12.50;12.50;;;;;20.12;69.50;100607.63;2073635;28;46873;-72
2022/10/20 00:58:22;;;;;;;;;14.33;13.67;;;;;20.11;69.39;100609.47;2076187;28;46638;-70
2022/10/20 00:59:28;;;;;;;;;16.00;13.67;;;;;20.11;70.02;100617.53;2076723;28;45550;-72
2022/10/20 01:00:29;;;;;;;;;20.40;15.80;;;;;20.13;69.30;100612.03;2076661;28;46651;-70
2022/10/20 01:01:31;;;;;;;;;14.00;13.25;;;;;20.13;69.72;100618.31;2076522;28;46060;-71
2022/10/20 01:02:31;;;;;;;;;13.75;13.50;;;;;20.14;69.93;100629.94;2073418;28;45723;-70
2022/10/20 01:03:44;;;;;;;;;16.33;16.33;;;;;20.14;69.90;100620.03;2074967;28;47614;-72
2022/10/20 01:04:45;;;;;;;;;14.00;13.00;;;;;20.14;69.78;100622.72;2074288;28;45798;-71
2022/10/20 01:05:46;;;;;;;;;12.00;11.50;;;;;20.13;69.96;100617.44;2076774;28;46871;-71
2022/10/20 01:06:46;;;;;;;;;16.33;15.00;;;;;20.13;69.93;100615.59;2076539;28;46261;-72
2022/10/20 01:07:47;;;;;;;;;14.00;14.00;;;;;20.12;70.03;100605.78;2077145;28;46694;-71
2022/10/20 01:08:49;;;;;;;;;14.33;14.33;;;;;20.13;69.78;100609.34;2076631;28;46607;-71
2022/10/20 01:09:50;;;;;;;;;12.00;12.00;;;;;20.13;69.36;100606.66;2076565;28;46352;-70
2022/10/20 01:11:05;;;;;;;;;13.67;13.67;;;;;20.12;69.41;100611.19;2071623;28;46153;-72
2022/10/20 01:12:18;;;;;;;;;13.25;13.25;;;;;20.12;69.95;100603.09;2077520;28;45566;-71
2022/10/20 01:13:29;;;;;;;;;11.25;10.75;;;;;20.12;69.31;100604.94;2074078;28;47153;-71
2022/10/20 01:14:42;;;;;;;;;12.25;11.25;;;;;20.11;69.57;100601.38;2075523;28;46705;-70
2022/10/20 01:15:45;;;;;;;;;15.00;13.75;;;;;20.11;69.38;100600.50;2077116;28;46058;-72
2022/10/20 01:16:53;;;;;;;;;14.25;14.25;;;;;20.10;69.71;100605.03;2076146;28;45501;-71
2022/10/20 01:17:56;;;;;;;;;13.75;13.25;;;;;20.11;69.90;100616.66;2077652;28;46825;-72
2022/10/20 01:19:15;;;;;;;;;15.00;15.00;;;;;20.09;69.92;100610.53;2075305;28;46266;-71
2022/10/20 01:20:45;;;;;;;;;13.50;13.50;;;;;20.10;69.55;100615.81;2077708;28;46013;-70
2022/10/20 01:22:07;;;;;;;;;15.50;15.25;;;;;20.09;69.62;100621.28;2071921;28;46551;-72
2022/10/20 01:23:28;;;;;;;;;15.75;14.75;;;;;20.07;69.69;100617.81;2076649;28;46496;-72
2022/10/20 01:24:33;;;;;;;;;15.25;14.25;;;;;20.06;69.37;100621.47;2094244;28;46759;-72
2022/10/20 01:25:49;;;;;;;;;17.25;14.00;;;;;20.03;70.08;100618.97;2091898;28;47362;-70
2022/10/20 01:27:27;;;;;;;;;14.75;14.75;;;;;19.99;69.63;100616.47;2092345;28;46958;-71
2022/10/20 01:29:02;;;;;;;;;14.50;14.50;;;;;19.95;69.78;100608.69;2091878;28;45909;-72
2022/10/20 01:30:21;;;;;;;;;16.25;15.00;;;;;19.92;69.76;100609.72;2077331;28;45775;-71
2022/10/20 01:31:42;;;;;;;;;10.75;9.50;;;;;19.91;70.24;100615.22;2075733;28;46400;-71
2022/10/20 01:32:53;;;;;;;;;12.50;12.50;;;;;19.89;70.02;100617.13;2075083;28;45133;-72
2022/10/20 01:33:59;;;;;;;;;15.25;14.75;;;;;19.87;69.97;100617.25;2077778;28;46209;-72
2022/10/20 01:35:11;;;;;;;;;17.25;16.75;;;;;19.86;69.94;100628.09;2076691;28;46530;-72
2022/10/20 01:36:37;;;;;;;;;12.25;11.00;;;;;19.83;70.03;100622.91;2078230;28;45923;-72
2022/10/20 01:37:50;;;;;;;;;16.50;14.50;;;;;19.80;70.36;100615.88;2066571;28;46765;-71
2022/10/20 01:39:11;;;;;;;;;15.25;15.25;;;;;19.79;70.38;100615.97;2065668;28;46336;-72
2022/10/20 01:40:20;;;;;;;;;14.75;13.00;;;;;19.78;70.12;100612.41;2067926;28;45734;-72
2022/10/20 01:41:27;;;;;;;;;14.50;14.50;;;;;19.78;70.55;100608.84;2068719;28;46839;-71
2022/10/20 01:42:30;;;;;;;;;12.25;12.25;;;;;19.77;70.01;100615.19;2059911;28;45232;-72
2022/10/20 01:43:36;;;;;;;;;13.50;13.00;;;;;19.76;70.51;100613.47;2060431;28;45367;-72
2022/10/20 01:44:38;;;;;;;;;8.75;8.75;;;;;19.75;70.13;100607.22;2068636;28;45726;-72
2022/10/20 01:45:43;;;;;;;;;13.00;11.75;;;;;19.74;70.33;100612.69;2068043;28;47223;-72
2022/10/20 01:46:45;;;;;;;;;11.75;11.75;;;;;19.74;70.09;100612.69;2069505;28;47705;-71
2022/10/20 01:47:47;;;;;;;;;15.00;13.00;;;;;19.73;70.40;100627.13;2064856;28;45943;-72
2022/10/20 01:48:48;;;;;;;;;14.50;14.50;;;;;19.71;70.22;100634.44;2069742;28;47155;-71
2022/10/20 01:49:48;;;;;;;;;13.33;13.33;;;;;19.69;70.90;100635.41;2069164;28;46269;-71
2022/10/20 01:50:49;;;;;;;;;11.00;11.00;;;;;19.68;70.79;100644.41;2070474;28;45540;-73
2022/10/20 01:51:50;;;;;;;;;14.50;14.50;;;;;19.68;71.03;100654.31;2069517;28;46416;-70
2022/10/20 01:52:57;;;;;;;;;11.67;11.67;;;;;19.67;70.40;100679.50;2070239;28;46441;-71
2022/10/20 01:53:57;;;;;;;;;15.00;14.75;;;;;19.66;70.58;100692.09;2071158;28;45287;-71
2022/10/20 01:54:57;;;;;;;;;18.00;15.00;;;;;19.65;71.13;100684.13;2068983;28;46994;-71
2022/10/20 01:56:00;;;;;;;;;18.25;15.00;;;;;19.65;70.65;100667.97;2070599;28;46509;-72
2022/10/20 01:57:26;;;;;;;;;18.00;16.25;;;;;19.64;70.67;100653.63;2069191;28;45549;-72
2022/10/20 01:59:04;;;;;;;;;14.25;13.75;;;;;19.62;70.66;100652.88;2071129;28;45605;-72
2022/10/20 02:00:08;;;;;;;;;15.00;12.25;;;;;19.63;70.96;100676.13;2057972;28;46861;-71
2022/10/20 02:01:36;;;;;;;;;17.75;16.00;;;;;19.63;71.05;100673.44;2055429;28;46100;-72
2022/10/20 02:02:54;;;;;;;;;14.50;12.75;;;;;19.62;70.96;100665.47;2061952;28;45936;-72
2022/10/20 02:03:58;;;;;;;;;13.75;13.75;;;;;19.60;71.27;100665.56;2062442;28;45632;-73
2022/10/20 02:05:16;;;;;;;;;12.25;12.25;;;;;19.60;71.28;100656.63;2061822;28;47248;-70
2022/10/20 02:06:39;;;;;;;;;17.00;14.00;;;;;19.58;71.31;100640.56;2066121;28;47178;-71
2022/10/20 02:07:41;;;;;;;;;13.50;13.50;;;;;19.57;71.00;100627.19;2073368;28;47096;-73
2022/10/20 02:08:58;;;;;;;;;16.00;12.00;;;;;19.56;71.32;100618.22;2072502;28;46517;-71
2022/10/20 02:10:14;;;;;;;;;14.50;12.75;;;;;19.55;71.14;100621.00;2063981;28;46601;-71
2022/10/20 02:11:24;;;;;;;;;11.75;11.75;;;;;19.54;71.04;100621.94;2063681;28;46272;-71
2022/10/20 02:12:31;;;;;;;;;10.50;10.50;;;;;19.54;71.59;100622.81;2064323;28;46778;-71
2022/10/20 02:13:36;;;;;;;;;14.50;14.00;;;;;19.54;71.54;100613.88;2069833;28;45597;-72
2022/10/20 02:14:37;;;;;;;;;12.50;11.00;;;;;19.54;71.68;100600.41;2070300;28;46977;-70
2022/10/20 02:15:43;;;;;;;;;10.25;10.25;;;;;19.54;71.44;100595.88;2105863;27;45891;-70
2022/10/20 02:16:51;;;;;;;;;13.00;13.00;;;;;19.54;71.37;100589.63;2118376;27;46812;-72
2022/10/20 02:17:58;;;;;;;;;13.00;13.00;;;;;19.54;71.71;100593.19;2118069;27;45683;-71
2022/10/20 02:19:00;;;;;;;;;12.75;12.50;;;;;19.54;71.15;100585.13;2117993;27;47465;-72
2022/10/20 02:20:04;;;;;;;;;13.00;13.00;;;;;19.54;71.37;100581.56;2117440;27;46594;-70
2022/10/20 02:21:06;;;;;;;;;13.00;13.00;;;;;19.54;71.54;100571.66;2099026;28;48106;-74
2022/10/20 02:22:09;;;;;;;;;12.25;11.75;;;;;19.54;71.29;100554.66;2104394;27;46802;-71
2022/10/20 02:23:10;;;;;;;;;12.00;12.00;;;;;19.54;71.30;100560.91;2115689;27;46370;-70
2022/10/20 02:24:13;;;;;;;;;12.67;12.67;;;;;19.53;71.52;100552.91;2119774;27;47477;-71
2022/10/20 02:25:14;;;;;;;;;9.50;9.25;;;;;19.51;71.55;100549.47;2116345;27;47020;-71
2022/10/20 02:26:18;;;;;;;;;12.33;11.33;;;;;19.50;71.93;100558.50;2121839;27;46315;-71
2022/10/20 02:27:29;;;;;;;;;13.50;13.50;;;;;19.47;71.69;100551.50;2115850;27;46333;-72
2022/10/20 02:28:32;;;;;;;;;15.00;14.75;;;;;19.49;71.99;100567.53;2120147;27;45956;-72
2022/10/20 02:29:38;;;;;;;;;15.00;14.00;;;;;19.49;71.59;100581.00;2119008;27;46213;-72
2022/10/20 02:30:40;;;;;;;;;10.25;10.25;;;;;19.51;71.94;100576.38;2113808;27;46176;-71
2022/10/20 02:31:42;;;;;;;;;9.25;9.25;;;;;19.51;71.72;100577.25;2118026;27;46988;-73
2022/10/20 02:32:49;;;;;;;;;11.50;10.00;;;;;19.52;71.95;100570.03;2118582;27;46336;-71
2022/10/20 02:33:52;;;;;;;;;13.25;12.00;;;;;19.53;72.11;100564.56;2120328;27;46774;-72
2022/10/20 02:34:52;;;;;;;;;12.75;10.50;;;;;19.54;71.73;100550.13;2119656;27;45375;-72
2022/10/20 02:35:58;;;;;;;;;11.00;9.67;;;;;19.55;72.15;100543.81;2119493;27;46668;-72
2022/10/20 02:36:58;;;;;;;;;11.75;11.75;;;;;19.57;71.58;100522.22;2118819;27;45663;-71
2022/10/20 02:37:59;;;;;;;;;10.67;10.67;;;;;19.57;71.79;100515.00;2118719;27;46773;-72
2022/10/20 02:39:00;;;;;;;;;12.00;10.25;;;;;19.58;71.47;100507.78;2114696;27;45921;-71
2022/10/20 02:40:01;;;;;;;;;8.33;8.33;;;;;19.59;71.75;100498.75;2120939;27;45569;-71
2022/10/20 02:41:01;;;;;;;;;10.75;10.25;;;;;19.59;71.53;100488.84;2117116;27;46406;-71
2022/10/20 02:42:02;;;;;;;;;10.67;9.33;;;;;19.59;72.16;100474.53;2119041;27;46212;-71
2022/10/20 02:43:03;;;;;;;;;10.25;10.25;;;;;19.59;72.03;100475.41;2118041;27;46294;-71
2022/10/20 02:44:03;;;;;;;;;8.33;8.33;;;;;19.61;71.89;100472.59;2117927;27;45686;-71
2022/10/20 02:45:04;;;;;;;;;11.67;10.67;;;;;19.61;71.97;100467.22;2108929;27;45499;-70
2022/10/20 02:46:04;;;;;;;;;9.67;8.33;;;;;19.62;71.68;100469.81;2111563;27;46189;-71
2022/10/20 02:47:05;;;;;;;;;10.00;10.00;;;;;19.61;71.78;100486.94;2116103;27;47109;-72
2022/10/20 02:48:08;;;;;;;;;9.00;7.67;;;;;19.62;71.69;100488.66;2118534;27;45551;-71
2022/10/20 02:49:08;;;;;;;;;8.25;8.25;;;;;19.64;71.49;100492.09;2118951;27;46212;-71
2022/10/20 02:50:09;;;;;;;;;9.00;9.00;;;;;19.63;71.43;100479.63;2117662;27;46417;-71
2022/10/20 02:51:09;;;;;;;;;6.67;5.33;;;;;19.64;71.71;100483.16;2113751;27;46332;-72
2022/10/20 02:52:09;;;;;;;;;7.00;7.00;;;;;19.65;71.17;100488.44;2116807;27;46292;-72
2022/10/20 02:53:10;;;;;;;;;10.67;9.67;;;;;19.65;71.23;100484.91;2115289;27;45954;-72
2022/10/20 02:54:10;;;;;;;;;9.33;8.67;;;;;19.65;71.23;100487.59;2120927;27;45730;-72
2022/10/20 02:55:10;;;;;;;;;6.67;6.67;;;;;19.66;71.31;100482.09;2116526;27;47023;-72
2022/10/20 02:56:11;;;;;;;;;7.00;6.00;;;;;19.68;71.61;100488.25;2120232;27;46415;-72
2022/10/20 02:57:11;;;;;;;;;10.00;8.67;;;;;19.69;71.17;100478.34;2119070;27;45297;-71
2022/10/20 02:58:11;;;;;;;;;10.67;7.67;;;;;19.69;70.90;100483.72;2114171;27;45659;-72
2022/10/20 02:59:14;;;;;;;;;7.33;6.67;;;;;19.71;71.10;100486.34;2107567;27;45657;-70
2022/10/20 03:00:14;;;;;;;;;6.25;6.25;;;;;19.72;71.38;100488.09;2099247;28;48078;-72
2022/10/20 03:01:15;;;;;;;;;9.00;6.67;;;;;19.73;71.06;100498.75;2108617;27;46889;-72
2022/10/20 03:02:15;;;;;;;;;10.00;9.00;;;;;19.75;70.95;100504.03;2122099;27;46649;-72
2022/10/20 03:03:17;;;;;;;;;6.00;6.00;;;;;19.75;71.12;100509.41;2116277;27;47092;-71
2022/10/20 03:04:17;;;;;;;;;9.00;8.50;;;;;19.75;70.75;100510.28;2116692;27;46453;-72
2022/10/20 03:05:18;;;;;;;;;8.00;8.00;;;;;19.78;71.09;100525.38;2114630;27;45581;-72
2022/10/20 03:06:18;;;;;;;;;8.00;7.33;;;;;19.81;70.55;100527.88;2119561;27;46809;-72
2022/10/20 03:07:18;;;;;;;;;8.00;6.00;;;;;19.82;70.69;100529.59;2119027;27;46260;-71
2022/10/20 03:08:19;;;;;;;;;9.67;7.67;;;;;19.84;70.73;100525.88;2119414;27;46738;-71
2022/10/20 03:09:19;;;;;;;;;6.67;6.00;;;;;19.86;70.62;100540.09;2088813;28;47406;-72
2022/10/20 03:10:20;;;;;;;;;7.67;7.67;;;;;19.89;70.62;100547.13;2089446;28;46389;-71
2022/10/20 03:11:20;;;;;;;;;10.00;8.00;;;;;19.90;70.53;100546.16;2117413;27;45559;-71
2022/10/20 03:12:21;;;;;;;;;6.00;6.00;;;;;19.93;70.75;100551.34;2117967;27;47233;-70
2022/10/20 03:13:21;;;;;;;;;6.33;6.33;;;;;19.94;70.76;100553.94;2106177;27;45586;-71
2022/10/20 03:14:21;;;;;;;;;5.67;5.67;;;;;19.97;70.72;100560.97;2105904;27;46384;-71
2022/10/20 03:15:21;;;;;;;;;7.00;7.00;;;;;19.98;70.17;100563.56;2117074;27;45654;-72
2022/10/20 03:16:22;;;;;;;;;5.00;5.00;;;;;19.99;70.53;100564.44;2118315;27;47057;-71
2022/10/20 03:17:22;;;;;;;;;5.67;5.67;;;;;20.02;70.31;100571.44;2117604;27;45505;-71
2022/10/20 03:18:23;;;;;;;;;7.00;4.00;;;;;20.03;70.51;100571.34;2108286;27;46343;-72
2022/10/20 03:19:23;;;;;;;;;7.67;7.67;;;;;20.03;69.93;100563.25;2100615;27;46274;-70
2022/10/20 03:20:23;;;;;;;;;5.33;5.00;;;;;20.04;70.33;100561.44;2108533;27;46593;-70
2022/10/20 03:21:24;;;;;;;;;11.33;9.00;;;;;20.06;70.15;100556.81;2106177;27;46258;-72
2022/10/20 03:22:24;;;;;;;;;7.00;7.00;;;;;20.05;70.50;100552.38;2113085;27;45456;-72
2022/10/20 03:23:24;;;;;;;;;7.00;5.33;;;;;20.07;70.19;100547.75;2116690;27;45897;-71
2022/10/20 03:24:25;;;;;;;;;10.00;10.00;;;;;20.06;70.03;100535.25;2115944;27;45797;-70
2022/10/20 03:25:25;;;;;;;;;6.33;6.33;;;;;20.07;70.44;100537.00;2117718;27;47228;-71
2022/10/20 03:26:26;;;;;;;;;8.33;7.00;;;;;20.07;70.22;100527.06;2120698;27;45542;-72
2022/10/20 03:27:26;;;;;;;;;8.33;7.00;;;;;20.09;70.19;100524.31;2115837;27;47194;-70
2022/10/20 03:28:26;;;;;;;;;7.00;7.00;;;;;20.10;70.54;100518.81;2116071;27;46265;-71
2022/10/20 03:29:26;;;;;;;;;9.00;7.00;;;;;20.11;70.33;100525.06;2114212;27;46508;-72
2022/10/20 03:30:27;;;;;;;;;8.00;8.00;;;;;20.11;70.40;100523.25;2115366;27;46095;-71
2022/10/20 03:31:27;;;;;;;;;9.00;8.33;;;;;20.12;70.79;100522.28;2114495;27;46196;-71
2022/10/20 03:32:28;;;;;;;;;6.00;5.00;;;;;20.13;70.94;100536.59;2121615;27;46404;-71
2022/10/20 03:33:28;;;;;;;;;9.00;7.00;;;;;20.14;70.90;100536.50;2117711;27;46049;-71
2022/10/20 03:34:28;;;;;;;;;7.00;7.00;;;;;20.16;70.95;100539.09;2120778;27;45842;-71
2022/10/20 03:35:28;;;;;;;;;8.00;8.00;;;;;20.17;70.60;100548.91;2115242;27;45442;-71
2022/10/20 03:36:29;;;;;;;;;7.33;6.00;;;;;20.16;71.20;100547.19;2118124;27;45834;-72
2022/10/20 03:37:29;;;;;;;;;8.00;8.00;;;;;20.18;70.60;100550.63;2118501;27;46706;-71
2022/10/20 03:38:29;;;;;;;;;8.00;6.67;;;;;20.18;71.09;100550.63;2121602;27;45521;-70
2022/10/20 03:39:30;;;;;;;;;8.67;8.33;;;;;20.19;70.84;100553.22;2117094;27;45714;-72
2022/10/20 03:40:30;;;;;;;;;6.33;6.33;;;;;20.20;71.03;100554.09;2110711;27;45888;-72
2022/10/20 03:41:30;;;;;;;;;7.33;6.00;;;;;20.21;71.08;100553.16;2107830;27;46137;-71
2022/10/20 03:42:31;;;;;;;;;9.00;8.00;;;;;20.23;71.01;100543.16;2116933;27;46235;-71
2022/10/20 03:43:31;;;;;;;;;8.00;8.00;;;;;20.22;70.69;100539.59;2107002;27;48161;-71
2022/10/20 03:44:31;;;;;;;;;10.67;9.00;;;;;20.23;70.82;100545.84;2109722;27;46732;-70
2022/10/20 03:45:32;;;;;;;;;9.00;8.00;;;;;20.23;71.13;100549.41;2116792;27;45869;-71
2022/10/20 03:46:32;;;;;;;;;6.00;6.00;;;;;20.24;71.05;100547.56;2115098;27;45937;-73
2022/10/20 03:47:33;;;;;;;;;10.67;9.00;;;;;20.23;70.66;100545.84;2116704;27;45949;-72
2022/10/20 03:48:34;;;;;;;;;8.67;8.67;;;;;20.22;70.95;100550.38;2111916;27;47958;-72
2022/10/20 03:49:34;;;;;;;;;10.75;8.50;;;;;20.22;70.78;100557.59;2111390;27;45151;-71
2022/10/20 03:50:38;;;;;;;;;9.00;9.00;;;;;20.22;70.51;100562.97;2115396;27;46294;-71
2022/10/20 03:51:38;;;;;;;;;8.00;7.75;;;;;20.20;70.55;100560.38;2113919;27;45774;-71
2022/10/20 03:52:39;;;;;;;;;7.00;7.00;;;;;20.18;70.78;100564.97;2118973;27;45776;-72
2022/10/20 03:53:39;;;;;;;;;7.00;6.67;;;;;20.18;71.25;100564.13;2118663;27;47519;-74
2022/10/20 03:54:39;;;;;;;;;11.33;10.33;;;;;20.17;71.35;100560.56;2115361;27;45726;-72
2022/10/20 03:55:40;;;;;;;;;8.00;6.33;;;;;20.16;71.35;100561.53;2116313;27;46706;-71
2022/10/20 03:56:40;;;;;;;;;9.00;8.33;;;;;20.16;70.90;100569.59;2115199;27;45842;-72
2022/10/20 03:57:41;;;;;;;;;8.33;7.67;;;;;20.17;71.25;100576.72;2118507;27;46067;-71
2022/10/20 03:58:41;;;;;;;;;9.33;8.00;;;;;20.15;71.59;100572.41;2120652;27;45060;-72
2022/10/20 03:59:41;;;;;;;;;8.00;7.67;;;;;20.16;71.17;100571.44;2117418;27;45612;-71
2022/10/20 04:00:42;;;;;;;;;7.00;7.00;;;;;20.14;71.77;100558.06;2116037;27;45867;-71
2022/10/20 04:01:44;;;;;;;;;8.00;8.00;;;;;20.14;71.54;100552.69;2117092;27;46394;-71
2022/10/20 04:02:45;;;;;;;;;8.75;8.75;;;;;20.17;71.40;100554.31;2117945;27;46816;-70
2022/10/20 04:03:46;;;;;;;;;12.00;10.00;;;;;20.17;71.54;100555.16;2117553;27;45393;-72
2022/10/20 04:04:46;;;;;;;;;7.33;7.00;;;;;20.18;71.62;100556.03;2116735;27;46078;-72
2022/10/20 04:05:46;;;;;;;;;8.67;8.67;;;;;20.18;71.63;100566.81;2119302;27;46106;-72
2022/10/20 04:06:47;;;;;;;;;6.33;6.00;;;;;20.18;71.95;100577.59;2114930;27;46686;-71
2022/10/20 04:07:47;;;;;;;;;11.67;9.00;;;;;20.19;71.90;100576.63;2118373;27;45513;-71
2022/10/20 04:08:47;;;;;;;;;10.00;10.00;;;;;20.17;72.10;100574.03;2119056;27;45568;-71
2022/10/20 04:09:48;;;;;;;;;9.33;9.00;;;;;20.17;72.09;100570.47;2119517;27;46129;-71
2022/10/20 04:10:48;;;;;;;;;10.33;10.33;;;;;20.17;71.89;100565.06;2119882;27;45218;-71
2022/10/20 04:11:48;;;;;;;;;7.00;6.00;;;;;20.15;72.29;100567.88;2116582;27;45703;-70
2022/10/20 04:12:49;;;;;;;;;11.00;8.67;;;;;20.15;72.30;100570.56;2113259;27;45968;-71
2022/10/20 04:13:50;;;;;;;;;12.67;9.67;;;;;20.14;72.27;100568.84;2119028;27;46449;-71
2022/10/20 04:14:50;;;;;;;;;9.25;8.75;;;;;20.16;72.36;100566.03;2118077;27;47098;-71
2022/10/20 04:15:51;;;;;;;;;11.67;11.00;;;;;20.14;72.01;100558.06;2118343;27;46073;-73
2022/10/20 04:16:51;;;;;;;;;8.33;8.33;;;;;20.14;72.52;100541.91;2106870;27;45621;-71
2022/10/20 04:17:51;;;;;;;;;9.00;7.33;;;;;20.14;72.01;100535.66;2111461;27;46476;-71
2022/10/20 04:18:52;;;;;;;;;8.00;8.00;;;;;20.13;72.55;100540.16;2120124;27;45311;-71
2022/10/20 04:19:52;;;;;;;;;8.67;7.00;;;;;20.14;72.42;100541.03;2115488;27;47032;-72
2022/10/20 04:20:53;;;;;;;;;8.00;6.00;;;;;20.14;71.96;100546.41;2116232;27;46444;-71
2022/10/20 04:21:53;;;;;;;;;7.67;7.67;;;;;20.15;72.45;100540.06;2118539;27;45522;-72
2022/10/20 04:22:53;;;;;;;;;8.67;8.00;;;;;20.15;72.77;100534.69;2113060;27;46883;-73
2022/10/20 04:23:54;;;;;;;;;10.00;8.33;;;;;20.15;72.75;100529.28;2118142;27;46468;-73
2022/10/20 04:24:54;;;;;;;;;8.33;8.33;;;;;20.14;72.37;100528.44;2116029;27;46012;-73
2022/10/20 04:25:54;;;;;;;;;8.67;8.67;;;;;20.15;72.98;100532.84;2120281;27;45477;-73
2022/10/20 04:26:55;;;;;;;;;7.33;6.67;;;;;20.15;72.45;100526.59;2114682;27;45600;-72
2022/10/20 04:27:57;;;;;;;;;9.67;9.67;;;;;20.14;72.74;100530.25;2119636;27;45225;-72
2022/10/20 04:28:58;;;;;;;;;9.50;8.25;;;;;20.13;73.24;100533.91;2117921;27;46943;-72
2022/10/20 04:29:58;;;;;;;;;9.00;8.00;;;;;20.13;72.76;100536.59;2119269;27;45797;-71
2022/10/20 04:30:59;;;;;;;;;8.00;8.00;;;;;20.12;72.60;100533.06;2119269;27;45805;-71
2022/10/20 04:31:59;;;;;;;;;8.75;7.75;;;;;20.11;73.24;100528.63;2117692;27;45591;-72
2022/10/20 04:33:00;;;;;;;;;9.00;9.00;;;;;20.10;72.78;100524.22;2115963;27;46616;-71
2022/10/20 04:34:00;;;;;;;;;10.67;10.67;;;;;20.08;73.17;100518.06;2095769;28;45992;-71
2022/10/20 04:35:00;;;;;;;;;10.33;10.33;;;;;20.07;73.19;100507.34;2099689;28;46052;-72
2022/10/20 04:36:04;;;;;;;;;11.67;5.67;;;;;20.07;72.82;100507.34;2114503;27;45648;-72
2022/10/20 04:37:05;;;;;;;;;9.75;8.00;;;;;20.06;72.81;100502.94;2113854;27;48556;-71
2022/10/20 04:38:06;;;;;;;;;8.00;8.00;;;;;20.06;73.07;100500.25;2118843;27;46291;-73
2022/10/20 04:39:06;;;;;;;;;11.00;9.00;;;;;20.06;73.49;100508.31;2116251;27;46001;-73
2022/10/20 04:40:07;;;;;;;;;9.33;7.67;;;;;20.06;73.64;100511.00;2120630;27;45511;-71
2022/10/20 04:41:09;;;;;;;;;7.00;7.00;;;;;20.06;73.58;100516.41;2117681;27;46773;-73
2022/10/20 04:42:09;;;;;;;;;8.50;7.75;;;;;20.06;73.65;100519.97;2114442;27;45620;-72
2022/10/20 04:43:09;;;;;;;;;10.67;9.67;;;;;20.05;73.69;100526.31;2117794;27;46286;-70
2022/10/20 04:44:10;;;;;;;;;9.33;9.33;;;;;20.04;73.61;100527.28;2118852;27;46263;-71
2022/10/20 04:45:10;;;;;;;;;9.00;7.00;;;;;20.03;73.16;100530.94;2114775;27;45583;-73
2022/10/20 04:46:10;;;;;;;;;10.33;9.67;;;;;20.00;73.71;100533.84;2114305;27;45745;-72
2022/10/20 04:47:11;;;;;;;;;8.00;7.00;;;;;19.98;73.62;100536.63;2116868;27;47449;-73
2022/10/20 04:48:12;;;;;;;;;10.00;9.00;;;;;19.97;73.35;100537.59;2116687;27;46539;-71
2022/10/20 04:49:13;;;;;;;;;10.00;10.00;;;;;19.97;73.43;100539.44;2100756;28;45671;-71
2022/10/20 04:50:13;;;;;;;;;9.75;9.75;;;;;19.95;73.51;100534.13;2097304;27;45523;-64
2022/10/20 04:51:15;;;;;;;;;11.33;8.67;;;;;19.94;73.59;100527.00;2119985;27;45861;-63
2022/10/20 04:52:16;;;;;;;;;9.00;7.75;;;;;19.93;73.40;100532.47;2112759;27;46859;-65